Terminal Aerodrome Forecast
Issued by NWS Lake Charles, LA

Home | Current Version | Previous Version | Text Only | Print | Product List | Glossary On
Versions: 1 2 3 4 5 6 7 8 9 10 11 12 13 14 15 16 17 18 19 20
000
FTUS44 KLCH 041221 AAB
TAFLCH
TAF AMD
KLCH 041221Z 0412/0512 10003KT P6SM VCSH SCT025
     FM041400 11005KT P6SM VCSH SCT035
     FM041700 19006KT P6SM VCTS SCT040CB
     FM050000 VRB03KT P6SM SKC=

USA.gov is the U.S. government's official web portal to all federal, state and local government web resources and services.